sensor_id;sensor_type;location;lat;lon;timestamp;P1;durP1;ratioP1;P2;durP2;ratioP2
325;SDS011;150;52.352;14.058;2023-05-07T00:00:58;8.65;;;8.15;;
325;SDS011;150;52.352;14.058;2023-05-07T00:03:42;11.35;;;8.50;;
325;SDS011;150;52.352;14.058;2023-05-07T00:06:27;11.48;;;8.90;;
325;SDS011;150;52.352;14.058;2023-05-07T00:09:26;11.50;;;8.80;;
325;SDS011;150;52.352;14.058;2023-05-07T02:20:01;9.53;;;8.90;;
325;SDS011;150;52.352;14.058;2023-05-07T02:33:59;13.48;;;8.55;;
325;SDS011;150;52.352;14.058;2023-05-07T02:38:58;10.38;;;9.50;;
325;SDS011;150;52.352;14.058;2023-05-07T02:43:16;12.25;;;8.93;;
325;SDS011;150;52.352;14.058;2023-05-07T03:25:50;9.48;;;8.70;;
325;SDS011;150;52.352;14.058;2023-05-07T03:39:49;10.73;;;9.85;;
325;SDS011;150;52.352;14.058;2023-05-07T03:54:09;8.80;;;7.82;;
325;SDS011;150;52.352;14.058;2023-05-07T03:57:04;12.07;;;8.57;;
325;SDS011;150;52.352;14.058;2023-05-07T03:59:54;8.98;;;7.85;;
325;SDS011;150;52.352;14.058;2023-05-07T04:03:53;10.07;;;8.57;;
325;SDS011;150;52.352;14.058;2023-05-07T04:07:00;8.88;;;7.75;;
325;SDS011;150;52.352;14.058;2023-05-07T04:17:05;9.98;;;8.10;;
325;SDS011;150;52.352;14.058;2023-05-07T04:19:57;9.55;;;8.07;;
325;SDS011;150;52.352;14.058;2023-05-07T05:16:01;10.15;;;7.53;;
325;SDS011;150;52.352;14.058;2023-05-07T05:26:00;10.17;;;7.07;;
325;SDS011;150;52.352;14.058;2023-05-07T05:28:59;8.65;;;7.30;;
325;SDS011;150;52.352;14.058;2023-05-07T05:32:20;15.60;;;6.32;;
325;SDS011;150;52.352;14.058;2023-05-07T05:35:51;7.60;;;6.10;;
325;SDS011;150;52.352;14.058;2023-05-07T05:39:30;5.93;;;5.25;;
325;SDS011;150;52.352;14.058;2023-05-07T05:43:08;9.30;;;6.25;;
325;SDS011;150;52.352;14.058;2023-05-07T05:54:13;5.68;;;5.15;;
325;SDS011;150;52.352;14.058;2023-05-07T05:57:06;6.20;;;5.30;;
325;SDS011;150;52.352;14.058;2023-05-07T06:03:35;7.90;;;5.68;;
325;SDS011;150;52.352;14.058;2023-05-07T06:07:27;6.88;;;5.38;;
325;SDS011;150;52.352;14.058;2023-05-07T06:14:37;6.28;;;5.60;;
325;SDS011;150;52.352;14.058;2023-05-07T06:23:24;6.47;;;5.22;;
325;SDS011;150;52.352;14.058;2023-05-07T06:29:00;7.57;;;4.95;;
325;SDS011;150;52.352;14.058;2023-05-07T06:48:30;5.95;;;4.80;;
325;SDS011;150;52.352;14.058;2023-05-07T06:52:36;4.77;;;3.70;;
325;SDS011;150;52.352;14.058;2023-05-07T07:03:03;6.87;;;4.20;;
325;SDS011;150;52.352;14.058;2023-05-07T07:33:47;7.43;;;5.53;;
325;SDS011;150;52.352;14.058;2023-05-07T07:39:39;6.35;;;3.13;;
325;SDS011;150;52.352;14.058;2023-05-07T07:42:11;6.75;;;4.45;;
325;SDS011;150;52.352;14.058;2023-05-07T07:44:48;3.40;;;2.33;;
325;SDS011;150;52.352;14.058;2023-05-07T07:48:21;5.28;;;3.25;;
325;SDS011;150;52.352;14.058;2023-05-07T08:10:51;9.93;;;8.03;;
325;SDS011;150;52.352;14.058;2023-05-07T09:13:55;3.33;;;1.50;;
325;SDS011;150;52.352;14.058;2023-05-07T09:27:21;4.03;;;1.95;;
325;SDS011;150;52.352;14.058;2023-05-07T09:33:28;2.20;;;1.33;;
325;SDS011;150;52.352;14.058;2023-05-07T09:42:46;4.90;;;2.45;;
325;SDS011;150;52.352;14.058;2023-05-07T09:49:56;2.17;;;1.50;;
325;SDS011;150;52.352;14.058;2023-05-07T09:55:34;4.47;;;2.90;;
325;SDS011;150;52.352;14.058;2023-05-07T10:08:50;3.35;;;2.33;;
325;SDS011;150;52.352;14.058;2023-05-07T10:14:57;6.63;;;5.43;;
325;SDS011;150;52.352;14.058;2023-05-07T10:17:37;5.35;;;4.45;;
325;SDS011;150;52.352;14.058;2023-05-07T10:23:06;1.88;;;1.40;;
325;SDS011;150;52.352;14.058;2023-05-07T10:29:07;4.30;;;1.55;;
325;SDS011;150;52.352;14.058;2023-05-07T10:32:30;4.10;;;2.60;;
325;SDS011;150;52.352;14.058;2023-05-07T10:39:33;3.58;;;2.28;;
325;SDS011;150;52.352;14.058;2023-05-07T10:45:31;3.30;;;1.92;;
325;SDS011;150;52.352;14.058;2023-05-07T10:56:37;2.63;;;1.70;;
325;SDS011;150;52.352;14.058;2023-05-07T10:59:49;2.20;;;1.60;;
325;SDS011;150;52.352;14.058;2023-05-07T11:03:06;2.20;;;1.00;;
325;SDS011;150;52.352;14.058;2023-05-07T11:06:11;2.90;;;1.73;;
325;SDS011;150;52.352;14.058;2023-05-07T11:14:42;2.35;;;1.40;;
325;SDS011;150;52.352;14.058;2023-05-07T11:17:11;2.42;;;1.90;;
325;SDS011;150;52.352;14.058;2023-05-07T11:19:50;4.60;;;1.70;;
325;SDS011;150;52.352;14.058;2023-05-07T11:22:37;2.63;;;1.50;;
325;SDS011;150;52.352;14.058;2023-05-07T11:25:07;2.45;;;1.30;;
325;SDS011;150;52.352;14.058;2023-05-07T11:27:51;2.10;;;1.30;;
325;SDS011;150;52.352;14.058;2023-05-07T11:30:36;2.55;;;1.40;;
325;SDS011;150;52.352;14.058;2023-05-07T11:33:15;2.72;;;1.38;;
325;SDS011;150;52.352;14.058;2023-05-07T11:35:46;2.40;;;1.30;;
325;SDS011;150;52.352;14.058;2023-05-07T11:38:26;2.60;;;1.20;;
325;SDS011;150;52.352;14.058;2023-05-07T11:41:15;2.13;;;1.15;;
325;SDS011;150;52.352;14.058;2023-05-07T11:44:08;2.50;;;1.00;;
325;SDS011;150;52.352;14.058;2023-05-07T11:46:48;2.03;;;1.17;;
325;SDS011;150;52.352;14.058;2023-05-07T11:49:21;2.63;;;1.30;;
325;SDS011;150;52.352;14.058;2023-05-07T11:52:02;1.70;;;0.90;;
325;SDS011;150;52.352;14.058;2023-05-07T11:54:37;2.28;;;1.40;;
325;SDS011;150;52.352;14.058;2023-05-07T11:57:04;2.90;;;1.05;;
325;SDS011;150;52.352;14.058;2023-05-07T11:59:44;1.70;;;1.00;;
325;SDS011;150;52.352;14.058;2023-05-07T12:02:30;2.95;;;1.55;;
325;SDS011;150;52.352;14.058;2023-05-07T12:05:00;4.47;;;2.95;;
325;SDS011;150;52.352;14.058;2023-05-07T12:07:32;6.25;;;3.45;;
325;SDS011;150;52.352;14.058;2023-05-07T12:10:03;2.80;;;1.88;;
325;SDS011;150;52.352;14.058;2023-05-07T12:12:58;4.40;;;2.55;;
325;SDS011;150;52.352;14.058;2023-05-07T12:15:35;3.05;;;2.10;;
325;SDS011;150;52.352;14.058;2023-05-07T12:18:08;2.05;;;1.40;;
325;SDS011;150;52.352;14.058;2023-05-07T12:21:01;11.80;;;10.27;;
325;SDS011;150;52.352;14.058;2023-05-07T12:23:33;2.43;;;1.53;;
325;SDS011;150;52.352;14.058;2023-05-07T12:26:21;3.20;;;1.20;;
325;SDS011;150;52.352;14.058;2023-05-07T12:29:29;2.30;;;1.10;;
325;SDS011;150;52.352;14.058;2023-05-07T12:32:21;3.30;;;1.30;;
325;SDS011;150;52.352;14.058;2023-05-07T12:38:41;2.08;;;1.05;;
325;SDS011;150;52.352;14.058;2023-05-07T12:41:22;2.10;;;1.50;;
325;SDS011;150;52.352;14.058;2023-05-07T12:44:01;4.20;;;2.78;;
325;SDS011;150;52.352;14.058;2023-05-07T12:46:34;2.50;;;1.90;;
325;SDS011;150;52.352;14.058;2023-05-07T12:49:08;2.20;;;1.80;;
325;SDS011;150;52.352;14.058;2023-05-07T12:51:38;2.30;;;1.60;;
325;SDS011;150;52.352;14.058;2023-05-07T12:54:13;3.22;;;2.25;;
325;SDS011;150;52.352;14.058;2023-05-07T12:56:40;2.90;;;1.40;;
325;SDS011;150;52.352;14.058;2023-05-07T12:59:09;2.00;;;1.42;;
325;SDS011;150;52.352;14.058;2023-05-07T13:01:57;1.88;;;1.20;;
325;SDS011;150;52.352;14.058;2023-05-07T13:05:40;2.80;;;1.50;;
325;SDS011;150;52.352;14.058;2023-05-07T13:08:31;2.60;;;1.70;;
325;SDS011;150;52.352;14.058;2023-05-07T13:11:09;2.10;;;1.30;;
325;SDS011;150;52.352;14.058;2023-05-07T13:13:41;2.92;;;1.33;;
325;SDS011;150;52.352;14.058;2023-05-07T13:16:58;2.30;;;1.10;;
325;SDS011;150;52.352;14.058;2023-05-07T13:19:58;2.50;;;1.80;;
325;SDS011;150;52.352;14.058;2023-05-07T13:25:44;1.60;;;1.05;;
325;SDS011;150;52.352;14.058;2023-05-07T13:28:22;3.08;;;1.50;;
325;SDS011;150;52.352;14.058;2023-05-07T13:31:04;2.10;;;1.40;;
325;SDS011;150;52.352;14.058;2023-05-07T13:33:36;1.60;;;0.95;;
325;SDS011;150;52.352;14.058;2023-05-07T13:36:03;1.90;;;1.05;;
325;SDS011;150;52.352;14.058;2023-05-07T13:38:32;2.97;;;1.40;;
325;SDS011;150;52.352;14.058;2023-05-07T13:41:10;2.05;;;1.40;;
325;SDS011;150;52.352;14.058;2023-05-07T13:43:41;2.40;;;0.80;;
325;SDS011;150;52.352;14.058;2023-05-07T13:46:52;1.83;;;1.27;;
325;SDS011;150;52.352;14.058;2023-05-07T13:49:22;2.15;;;1.35;;
325;SDS011;150;52.352;14.058;2023-05-07T13:51:56;2.10;;;1.30;;
325;SDS011;150;52.352;14.058;2023-05-07T13:54:30;2.10;;;1.40;;
325;SDS011;150;52.352;14.058;2023-05-07T13:57:12;3.10;;;1.00;;
325;SDS011;150;52.352;14.058;2023-05-07T13:59:40;1.75;;;1.10;;
325;SDS011;150;52.352;14.058;2023-05-07T14:02:22;4.80;;;3.80;;
325;SDS011;150;52.352;14.058;2023-05-07T14:05:17;2.40;;;1.58;;
325;SDS011;150;52.352;14.058;2023-05-07T14:07:59;2.00;;;1.20;;
325;SDS011;150;52.352;14.058;2023-05-07T14:10:46;3.08;;;1.00;;
325;SDS011;150;52.352;14.058;2023-05-07T14:13:17;2.97;;;1.77;;
325;SDS011;150;52.352;14.058;2023-05-07T14:15:56;3.08;;;2.45;;
325;SDS011;150;52.352;14.058;2023-05-07T14:18:28;3.20;;;1.50;;
325;SDS011;150;52.352;14.058;2023-05-07T14:21:08;4.50;;;1.40;;
325;SDS011;150;52.352;14.058;2023-05-07T14:23:42;2.60;;;1.63;;
325;SDS011;150;52.352;14.058;2023-05-07T14:29:02;6.05;;;4.03;;
325;SDS011;150;52.352;14.058;2023-05-07T14:31:38;5.80;;;3.30;;
325;SDS011;150;52.352;14.058;2023-05-07T14:34:14;2.20;;;1.45;;
325;SDS011;150;52.352;14.058;2023-05-07T14:36:46;1.90;;;1.20;;
325;SDS011;150;52.352;14.058;2023-05-07T14:39:13;2.30;;;1.30;;
325;SDS011;150;52.352;14.058;2023-05-07T14:42:01;2.60;;;1.00;;
325;SDS011;150;52.352;14.058;2023-05-07T14:44:35;2.50;;;1.40;;
325;SDS011;150;52.352;14.058;2023-05-07T14:47:09;3.70;;;1.00;;
325;SDS011;150;52.352;14.058;2023-05-07T14:49:46;3.70;;;1.80;;
325;SDS011;150;52.352;14.058;2023-05-07T14:52:13;3.53;;;2.92;;
325;SDS011;150;52.352;14.058;2023-05-07T14:54:49;2.45;;;1.63;;
325;SDS011;150;52.352;14.058;2023-05-07T14:57:39;1.90;;;1.30;;
325;SDS011;150;52.352;14.058;2023-05-07T15:00:16;1.67;;;1.10;;
325;SDS011;150;52.352;14.058;2023-05-07T15:03:01;2.00;;;1.40;;
325;SDS011;150;52.352;14.058;2023-05-07T15:05:34;1.90;;;1.20;;
325;SDS011;150;52.352;14.058;2023-05-07T15:08:04;1.70;;;1.10;;
325;SDS011;150;52.352;14.058;2023-05-07T15:10:48;3.60;;;2.00;;
325;SDS011;150;52.352;14.058;2023-05-07T15:13:37;2.30;;;1.20;;
325;SDS011;150;52.352;14.058;2023-05-07T15:16:06;2.33;;;1.40;;
325;SDS011;150;52.352;14.058;2023-05-07T15:18:34;5.50;;;3.60;;
325;SDS011;150;52.352;14.058;2023-05-07T15:21:01;3.35;;;2.20;;
325;SDS011;150;52.352;14.058;2023-05-07T15:23:28;2.13;;;1.10;;
325;SDS011;150;52.352;14.058;2023-05-07T15:25:57;2.60;;;1.30;;
325;SDS011;150;52.352;14.058;2023-05-07T15:28:35;3.07;;;1.30;;
325;SDS011;150;52.352;14.058;2023-05-07T15:35:00;5.55;;;3.20;;
325;SDS011;150;52.352;14.058;2023-05-07T15:37:28;2.70;;;1.50;;
325;SDS011;150;52.352;14.058;2023-05-07T15:40:17;2.53;;;1.30;;
325;SDS011;150;52.352;14.058;2023-05-07T15:42:46;1.98;;;1.58;;
325;SDS011;150;52.352;14.058;2023-05-07T15:45:17;2.33;;;1.42;;
325;SDS011;150;52.352;14.058;2023-05-07T15:48:52;1.87;;;1.10;;
325;SDS011;150;52.352;14.058;2023-05-07T15:51:10;2.17;;;1.20;;
325;SDS011;150;52.352;14.058;2023-05-07T15:53:48;2.08;;;1.30;;
325;SDS011;150;52.352;14.058;2023-05-07T15:56:22;2.03;;;1.17;;
325;SDS011;150;52.352;14.058;2023-05-07T15:58:57;1.70;;;1.17;;
325;SDS011;150;52.352;14.058;2023-05-07T16:01:34;2.38;;;1.35;;
325;SDS011;150;52.352;14.058;2023-05-07T16:04:02;1.77;;;1.20;;
325;SDS011;150;52.352;14.058;2023-05-07T16:06:43;2.40;;;1.30;;
325;SDS011;150;52.352;14.058;2023-05-07T16:09:20;2.17;;;1.20;;
325;SDS011;150;52.352;14.058;2023-05-07T16:11:55;2.10;;;1.20;;
325;SDS011;150;52.352;14.058;2023-05-07T16:14:22;1.60;;;1.00;;
325;SDS011;150;52.352;14.058;2023-05-07T16:16:54;2.05;;;1.40;;
325;SDS011;150;52.352;14.058;2023-05-07T16:22:11;1.70;;;1.40;;
325;SDS011;150;52.352;14.058;2023-05-07T16:24:38;2.40;;;1.10;;
325;SDS011;150;52.352;14.058;2023-05-07T16:27:20;5.25;;;4.38;;
325;SDS011;150;52.352;14.058;2023-05-07T16:30:07;3.00;;;1.60;;
325;SDS011;150;52.352;14.058;2023-05-07T16:33:02;2.40;;;1.67;;
325;SDS011;150;52.352;14.058;2023-05-07T16:35:54;3.22;;;2.80;;
325;SDS011;150;52.352;14.058;2023-05-07T16:38:27;2.17;;;1.87;;
325;SDS011;150;52.352;14.058;2023-05-07T16:40:59;1.70;;;1.00;;
325;SDS011;150;52.352;14.058;2023-05-07T16:43:41;2.10;;;1.20;;
325;SDS011;150;52.352;14.058;2023-05-07T16:46:08;3.35;;;1.50;;
325;SDS011;150;52.352;14.058;2023-05-07T16:48:38;2.23;;;1.20;;
325;SDS011;150;52.352;14.058;2023-05-07T16:51:22;2.38;;;1.52;;
325;SDS011;150;52.352;14.058;2023-05-07T16:53:56;2.00;;;1.27;;
325;SDS011;150;52.352;14.058;2023-05-07T16:56:27;2.10;;;1.17;;
325;SDS011;150;52.352;14.058;2023-05-07T16:59:49;2.05;;;1.30;;
325;SDS011;150;52.352;14.058;2023-05-07T17:02:48;1.92;;;1.33;;
325;SDS011;150;52.352;14.058;2023-05-07T17:05:34;2.53;;;1.60;;
325;SDS011;150;52.352;14.058;2023-05-07T17:10:57;2.40;;;1.10;;
325;SDS011;150;52.352;14.058;2023-05-07T17:13:36;1.80;;;1.20;;
325;SDS011;150;52.352;14.058;2023-05-07T17:16:51;2.90;;;1.20;;
325;SDS011;150;52.352;14.058;2023-05-07T17:19:36;1.98;;;1.10;;
325;SDS011;150;52.352;14.058;2023-05-07T17:22:21;1.70;;;1.17;;
325;SDS011;150;52.352;14.058;2023-05-07T17:25:02;1.60;;;1.20;;
325;SDS011;150;52.352;14.058;2023-05-07T17:27:36;1.85;;;1.52;;
325;SDS011;150;52.352;14.058;2023-05-07T17:30:15;2.10;;;1.30;;
325;SDS011;150;52.352;14.058;2023-05-07T17:33:09;2.50;;;1.60;;
325;SDS011;150;52.352;14.058;2023-05-07T17:36:10;2.90;;;1.58;;
325;SDS011;150;52.352;14.058;2023-05-07T17:39:08;2.90;;;1.50;;
325;SDS011;150;52.352;14.058;2023-05-07T17:41:38;2.40;;;1.40;;
325;SDS011;150;52.352;14.058;2023-05-07T17:44:56;4.30;;;2.70;;
325;SDS011;150;52.352;14.058;2023-05-07T17:47:23;4.57;;;3.03;;
325;SDS011;150;52.352;14.058;2023-05-07T17:49:55;2.50;;;1.53;;
325;SDS011;150;52.352;14.058;2023-05-07T17:52:43;2.13;;;1.20;;
325;SDS011;150;52.352;14.058;2023-05-07T17:58:32;2.00;;;1.40;;
325;SDS011;150;52.352;14.058;2023-05-07T18:01:04;3.20;;;1.30;;
325;SDS011;150;52.352;14.058;2023-05-07T18:03:42;2.60;;;1.50;;
325;SDS011;150;52.352;14.058;2023-05-07T18:06:11;2.22;;;1.35;;
325;SDS011;150;52.352;14.058;2023-05-07T18:08:45;2.50;;;1.70;;
325;SDS011;150;52.352;14.058;2023-05-07T18:11:27;2.25;;;1.38;;
325;SDS011;150;52.352;14.058;2023-05-07T18:14:10;3.92;;;2.00;;
325;SDS011;150;52.352;14.058;2023-05-07T18:16:57;2.58;;;1.67;;
325;SDS011;150;52.352;14.058;2023-05-07T18:19:29;1.80;;;1.40;;
325;SDS011;150;52.352;14.058;2023-05-07T18:22:03;2.20;;;1.70;;
325;SDS011;150;52.352;14.058;2023-05-07T18:24:37;3.25;;;1.77;;
325;SDS011;150;52.352;14.058;2023-05-07T18:27:20;3.05;;;1.60;;
325;SDS011;150;52.352;14.058;2023-05-07T18:30:23;4.18;;;1.80;;
325;SDS011;150;52.352;14.058;2023-05-07T18:32:57;2.10;;;1.20;;
325;SDS011;150;52.352;14.058;2023-05-07T18:35:35;2.40;;;1.70;;
325;SDS011;150;52.352;14.058;2023-05-07T18:38:22;2.78;;;1.17;;
325;SDS011;150;52.352;14.058;2023-05-07T18:44:08;2.95;;;1.80;;
325;SDS011;150;52.352;14.058;2023-05-07T18:47:05;2.63;;;1.65;;
325;SDS011;150;52.352;14.058;2023-05-07T18:49:54;2.75;;;1.98;;
325;SDS011;150;52.352;14.058;2023-05-07T18:52:50;2.05;;;1.70;;
325;SDS011;150;52.352;14.058;2023-05-07T18:55:36;3.20;;;1.92;;
325;SDS011;150;52.352;14.058;2023-05-07T18:58:21;2.03;;;1.70;;
325;SDS011;150;52.352;14.058;2023-05-07T19:00:51;3.10;;;2.40;;
325;SDS011;150;52.352;14.058;2023-05-07T19:03:42;2.85;;;2.50;;
325;SDS011;150;52.352;14.058;2023-05-07T19:06:33;4.82;;;2.25;;
325;SDS011;150;52.352;14.058;2023-05-07T19:09:23;2.80;;;2.30;;
325;SDS011;150;52.352;14.058;2023-05-07T19:11:58;2.50;;;2.00;;
325;SDS011;150;52.352;14.058;2023-05-07T19:14:46;4.03;;;2.20;;
325;SDS011;150;52.352;14.058;2023-05-07T19:17:20;3.90;;;2.25;;
325;SDS011;150;52.352;14.058;2023-05-07T19:22:59;27.73;;;17.02;;
325;SDS011;150;52.352;14.058;2023-05-07T19:36:20;2.85;;;2.53;;
325;SDS011;150;52.352;14.058;2023-05-07T19:39:05;2.50;;;2.00;;
325;SDS011;150;52.352;14.058;2023-05-07T19:41:44;3.95;;;2.28;;
325;SDS011;150;52.352;14.058;2023-05-07T19:44:17;5.60;;;2.58;;
325;SDS011;150;52.352;14.058;2023-05-07T19:46:59;4.03;;;2.80;;
325;SDS011;150;52.352;14.058;2023-05-07T19:49:30;3.28;;;2.20;;
325;SDS011;150;52.352;14.058;2023-05-07T19:52:09;3.40;;;2.87;;
325;SDS011;150;52.352;14.058;2023-05-07T19:54:42;2.63;;;2.20;;
325;SDS011;150;52.352;14.058;2023-05-07T20:00:32;9.85;;;7.70;;
325;SDS011;150;52.352;14.058;2023-05-07T20:09:48;6.25;;;5.22;;
325;SDS011;150;52.352;14.058;2023-05-07T20:12:22;6.75;;;4.93;;
325;SDS011;150;52.352;14.058;2023-05-07T20:15:07;7.90;;;7.10;;
325;SDS011;150;52.352;14.058;2023-05-07T20:18:00;6.35;;;3.85;;
325;SDS011;150;52.352;14.058;2023-05-07T20:20:32;6.28;;;4.93;;
325;SDS011;150;52.352;14.058;2023-05-07T20:23:13;5.38;;;4.95;;
325;SDS011;150;52.352;14.058;2023-05-07T20:25:46;3.67;;;2.63;;
325;SDS011;150;52.352;14.058;2023-05-07T20:29:05;19.17;;;15.55;;
325;SDS011;150;52.352;14.058;2023-05-07T20:31:52;6.93;;;5.40;;
325;SDS011;150;52.352;14.058;2023-05-07T20:34:22;4.90;;;2.75;;
325;SDS011;150;52.352;14.058;2023-05-07T20:36:52;2.72;;;2.55;;
325;SDS011;150;52.352;14.058;2023-05-07T20:39:19;2.80;;;2.55;;
325;SDS011;150;52.352;14.058;2023-05-07T20:41:47;4.30;;;2.80;;
325;SDS011;150;52.352;14.058;2023-05-07T20:44:20;2.85;;;2.70;;
325;SDS011;150;52.352;14.058;2023-05-07T20:46:48;4.10;;;3.20;;
325;SDS011;150;52.352;14.058;2023-05-07T20:49:36;5.20;;;4.15;;
325;SDS011;150;52.352;14.058;2023-05-07T20:52:27;11.60;;;9.15;;
325;SDS011;150;52.352;14.058;2023-05-07T20:55:32;8.02;;;6.53;;
325;SDS011;150;52.352;14.058;2023-05-07T20:58:37;8.05;;;7.07;;
325;SDS011;150;52.352;14.058;2023-05-07T21:01:09;4.68;;;4.28;;
325;SDS011;150;52.352;14.058;2023-05-07T21:03:44;3.92;;;3.10;;
325;SDS011;150;52.352;14.058;2023-05-07T21:06:28;3.70;;;3.47;;
325;SDS011;150;52.352;14.058;2023-05-07T21:09:08;6.05;;;3.25;;
325;SDS011;150;52.352;14.058;2023-05-07T21:11:35;5.00;;;3.70;;
325;SDS011;150;52.352;14.058;2023-05-07T21:14:07;3.47;;;3.10;;
325;SDS011;150;52.352;14.058;2023-05-07T21:16:35;4.20;;;3.20;;
325;SDS011;150;52.352;14.058;2023-05-07T21:19:10;12.00;;;9.52;;
325;SDS011;150;52.352;14.058;2023-05-07T21:21:37;11.27;;;9.50;;
325;SDS011;150;52.352;14.058;2023-05-07T21:24:32;6.82;;;5.90;;
325;SDS011;150;52.352;14.058;2023-05-07T21:27:01;3.70;;;3.25;;
325;SDS011;150;52.352;14.058;2023-05-07T21:29:36;4.40;;;3.42;;
325;SDS011;150;52.352;14.058;2023-05-07T21:32:05;4.18;;;3.60;;
325;SDS011;150;52.352;14.058;2023-05-07T21:34:34;4.00;;;3.80;;
325;SDS011;150;52.352;14.058;2023-05-07T21:37:01;4.30;;;4.03;;
325;SDS011;150;52.352;14.058;2023-05-07T21:39:28;5.45;;;4.10;;
325;SDS011;150;52.352;14.058;2023-05-07T21:41:55;5.35;;;4.40;;
325;SDS011;150;52.352;14.058;2023-05-07T21:44:22;5.50;;;4.20;;
325;SDS011;150;52.352;14.058;2023-05-07T21:46:51;10.23;;;8.27;;
325;SDS011;150;52.352;14.058;2023-05-07T21:49:20;6.53;;;5.85;;
325;SDS011;150;52.352;14.058;2023-05-07T21:51:47;14.67;;;12.13;;
325;SDS011;150;52.352;14.058;2023-05-07T21:54:13;6.95;;;6.22;;
325;SDS011;150;52.352;14.058;2023-05-07T21:56:40;5.70;;;4.53;;
325;SDS011;150;52.352;14.058;2023-05-07T21:59:07;5.90;;;4.95;;
325;SDS011;150;52.352;14.058;2023-05-07T22:01:34;6.03;;;4.72;;
325;SDS011;150;52.352;14.058;2023-05-07T22:04:02;5.93;;;5.00;;
325;SDS011;150;52.352;14.058;2023-05-07T22:06:29;6.28;;;4.95;;
325;SDS011;150;52.352;14.058;2023-05-07T22:08:56;6.03;;;5.07;;
325;SDS011;150;52.352;14.058;2023-05-07T22:11:23;6.70;;;5.95;;
325;SDS011;150;52.352;14.058;2023-05-07T22:13:50;5.55;;;5.25;;
325;SDS011;150;52.352;14.058;2023-05-07T22:16:17;6.32;;;5.70;;
325;SDS011;150;52.352;14.058;2023-05-07T22:18:44;8.25;;;6.97;;
325;SDS011;150;52.352;14.058;2023-05-07T22:21:14;8.02;;;7.63;;
325;SDS011;150;52.352;14.058;2023-05-07T22:23:41;16.95;;;13.95;;
325;SDS011;150;52.352;14.058;2023-05-07T22:26:08;8.20;;;6.15;;
325;SDS011;150;52.352;14.058;2023-05-07T22:28:36;7.43;;;5.93;;
325;SDS011;150;52.352;14.058;2023-05-07T22:31:03;5.67;;;5.13;;
325;SDS011;150;52.352;14.058;2023-05-07T22:33:29;6.18;;;5.40;;
325;SDS011;150;52.352;14.058;2023-05-07T22:35:56;6.65;;;6.03;;
325;SDS011;150;52.352;14.058;2023-05-07T22:38:25;5.70;;;5.40;;
325;SDS011;150;52.352;14.058;2023-05-07T22:40:52;5.07;;;4.85;;
325;SDS011;150;52.352;14.058;2023-05-07T22:43:19;5.50;;;5.13;;
325;SDS011;150;52.352;14.058;2023-05-07T22:45:48;5.97;;;4.97;;
325;SDS011;150;52.352;14.058;2023-05-07T22:48:15;4.95;;;4.15;;
325;SDS011;150;52.352;14.058;2023-05-07T22:50:42;5.47;;;4.70;;
325;SDS011;150;52.352;14.058;2023-05-07T22:53:12;6.27;;;4.97;;
325;SDS011;150;52.352;14.058;2023-05-07T22:55:43;6.20;;;4.80;;
325;SDS011;150;52.352;14.058;2023-05-07T22:58:10;5.50;;;4.47;;
325;SDS011;150;52.352;14.058;2023-05-07T23:00:37;4.90;;;4.65;;
325;SDS011;150;52.352;14.058;2023-05-07T23:03:04;6.07;;;4.80;;
325;SDS011;150;52.352;14.058;2023-05-07T23:05:31;4.97;;;4.68;;
325;SDS011;150;52.352;14.058;2023-05-07T23:07:58;9.02;;;6.10;;
325;SDS011;150;52.352;14.058;2023-05-07T23:10:25;5.80;;;5.23;;
325;SDS011;150;52.352;14.058;2023-05-07T23:12:53;7.38;;;6.40;;
325;SDS011;150;52.352;14.058;2023-05-07T23:15:21;6.80;;;6.30;;
325;SDS011;150;52.352;14.058;2023-05-07T23:17:48;7.22;;;6.82;;
325;SDS011;150;52.352;14.058;2023-05-07T23:20:15;7.55;;;6.35;;
325;SDS011;150;52.352;14.058;2023-05-07T23:22:42;6.97;;;5.88;;
325;SDS011;150;52.352;14.058;2023-05-07T23:25:08;7.10;;;6.75;;
325;SDS011;150;52.352;14.058;2023-05-07T23:27:36;8.90;;;6.60;;
325;SDS011;150;52.352;14.058;2023-05-07T23:30:05;7.33;;;5.40;;
325;SDS011;150;52.352;14.058;2023-05-07T23:32:33;6.72;;;6.40;;
325;SDS011;150;52.352;14.058;2023-05-07T23:34:59;8.30;;;5.97;;
325;SDS011;150;52.352;14.058;2023-05-07T23:37:27;9.38;;;6.50;;
325;SDS011;150;52.352;14.058;2023-05-07T23:39:54;8.60;;;6.10;;
325;SDS011;150;52.352;14.058;2023-05-07T23:42:20;8.10;;;6.63;;
325;SDS011;150;52.352;14.058;2023-05-07T23:44:47;6.20;;;5.63;;
325;SDS011;150;52.352;14.058;2023-05-07T23:47:16;8.07;;;5.43;;
325;SDS011;150;52.352;14.058;2023-05-07T23:49:43;5.15;;;4.63;;
325;SDS011;150;52.352;14.058;2023-05-07T23:52:09;4.70;;;4.40;;
325;SDS011;150;52.352;14.058;2023-05-07T23:54:36;5.13;;;4.80;;
325;SDS011;150;52.352;14.058;2023-05-07T23:57:03;4.70;;;4.40;;
325;SDS011;150;52.352;14.058;2023-05-07T23:59:30;5.00;;;4.32;;
